KCAK/CAK METAR and TAF weather

Enter ICAO airport designator
Station Type Date Time Source
KCAK METAR 2022/12/08 13:08 UTC NOAA

KCAK 081308Z 00000KT 2 1/2SM BR OVC020 07/04 A3032 RMK AO2 T00670044


Station Type Date Time Source
KCAK Decoded METAR 2022/12/08 13:08 UTC NOAA

AKRON-CANTON REGIONAL AIRPORT , OH, United States (KCAK) 40-55N 081-27W 377M
Dec 08, 2022 - 08:08 AM EST / 2022.12.08 1308 UTC
Wind: Calm:0
Visibility: 2 1/2 mile(s):0
Sky conditions: overcast
Weather: mist
Temperature: 44.1 F (6.7 C)
Dew Point: 39.9 F (4.4 C)
Relative Humidity: 85%
Pressure (altimeter): 30.32 in. Hg (1026 hPa)
ob: KCAK 081308Z 00000KT 2 1/2SM BR OVC020 07/04 A3032 RMK AO2 T00670044
cycle: 13

Station Type Date Time Source
KCAK TAF 2022/12/08 12:39 UTC NOAA

TAF KCAK 081137Z 0812/0912 00000KT 4SM BR OVC018
FM081500 03004KT 6SM BR OVC021
FM090200 05006KT P6SM SCT026

Example: see airport list